EWG1822 EDDK-LOWW
Flight info
| Callsign | EWG1822 |
|---|---|
| Flight time | 1h 8m |
| Altitude | 35000 |
| Route | KUMIK8F KUMIK L603 TESGA DCT ESATI DCT BOREP DCT ENITA DCT ETVIS DCT BUDEX BUDEX2W |
| Aircraft | A21N/M-SDE2E3FGHIRWXY/LB1 |
Departure
| Time | 2026-04-22 18:53 |
|---|---|
| Airport | Cologne Bonn Airport (EDDK) |
Arrival
| Time | 2026-04-22 20:01 |
|---|---|
| Airport | Vienna International Airport (LOWW) |
| Time | Latitude | Longitude | Altitude | Speed | Heading |
|---|---|---|---|---|---|
| 2026-04-22 18:22 | 50.88057 | 7.12185 | 233 ft | 0 kts | 216° |
| 2026-04-22 18:37 | 50.88068 | 7.12198 | 233 ft | 2 kts | 216° |
| 2026-04-22 18:38 | 50.88080 | 7.12212 | 234 ft | 2 kts | 216° |
| 2026-04-22 18:38 | 50.88092 | 7.12226 | 234 ft | 2 kts | 216° |
| 2026-04-22 18:38 | 50.88105 | 7.12240 | 235 ft | 2 kts | 216° |
| 2026-04-22 18:39 | 50.88112 | 7.12248 | 235 ft | 0 kts | 216° |
| 2026-04-22 18:39 | 50.88126 | 7.12253 | 235 ft | 2 kts | 152° |
| 2026-04-22 18:39 | 50.88133 | 7.12244 | 235 ft | 1 kts | 117° |
| 2026-04-22 18:39 | 50.88135 | 7.12237 | 235 ft | 0 kts | 125° |
| 2026-04-22 18:40 | 50.88131 | 7.12233 | 235 ft | 0 kts | 125° |
| 2026-04-22 18:40 | 50.88118 | 7.12218 | 234 ft | 0 kts | 125° |
| 2026-04-22 18:42 | 50.88118 | 7.12219 | 234 ft | 0 kts | 125° |
| 2026-04-22 18:43 | 50.88113 | 7.12240 | 235 ft | 4 kts | 101° |
| 2026-04-22 18:43 | 50.88131 | 7.12313 | 237 ft | 8 kts | 58° |
| 2026-04-22 18:43 | 50.88141 | 7.12392 | 240 ft | 7 kts | 111° |
| 2026-04-22 18:43 | 50.88115 | 7.12451 | 242 ft | 6 kts | 131° |
| 2026-04-22 18:44 | 50.88088 | 7.12495 | 243 ft | 5 kts | 134° |
| 2026-04-22 18:44 | 50.88061 | 7.12535 | 244 ft | 5 kts | 137° |
| 2026-04-22 18:44 | 50.88032 | 7.12578 | 244 ft | 5 kts | 137° |
| 2026-04-22 18:44 | 50.88025 | 7.12589 | 244 ft | 0 kts | 137° |
| 2026-04-22 18:47 | 50.88024 | 7.12590 | 244 ft | 0 kts | 137° |
| 2026-04-22 18:47 | 50.88004 | 7.12619 | 245 ft | 5 kts | 136° |
| 2026-04-22 18:47 | 50.87985 | 7.12662 | 245 ft | 4 kts | 102° |
| 2026-04-22 18:47 | 50.87985 | 7.12675 | 245 ft | 0 kts | 82° |
| 2026-04-22 18:49 | 50.87985 | 7.12676 | 245 ft | 1 kts | 82° |
| 2026-04-22 18:49 | 50.87990 | 7.12713 | 245 ft | 5 kts | 75° |
| 2026-04-22 18:50 | 50.87997 | 7.12752 | 245 ft | 0 kts | 74° |
| 2026-04-22 18:51 | 50.87997 | 7.12753 | 245 ft | 0 kts | 74° |
| 2026-04-22 18:51 | 50.88004 | 7.12802 | 245 ft | 7 kts | 81° |
| 2026-04-22 18:51 | 50.87995 | 7.12959 | 242 ft | 18 kts | 114° |
| 2026-04-22 18:51 | 50.87953 | 7.13042 | 242 ft | 0 kts | 137° |
| 2026-04-22 18:52 | 50.87937 | 7.13064 | 243 ft | 19 kts | 137° |
| 2026-04-22 18:52 | 50.87635 | 7.13504 | 245 ft | 96 kts | 137° |
| 2026-04-22 18:52 | 50.86979 | 7.14453 | 261 ft | 159 kts | 136° |
| 2026-04-22 18:53 | 50.86116 | 7.15720 | 803 ft | 169 kts | 134° |
| 2026-04-22 18:53 | 50.85241 | 7.16959 | 1509 ft | 172 kts | 136° |
| 2026-04-22 18:53 | 50.84348 | 7.18188 | 2166 ft | 175 kts | 135° |
| 2026-04-22 18:53 | 50.83401 | 7.19509 | 2548 ft | 189 kts | 136° |
| 2026-04-22 18:54 | 50.82385 | 7.20932 | 2906 ft | 205 kts | 134° |
| 2026-04-22 18:54 | 50.81438 | 7.22715 | 3289 ft | 220 kts | 119° |
| 2026-04-22 18:54 | 50.80774 | 7.24972 | 3673 ft | 236 kts | 102° |
| 2026-04-22 18:54 | 50.80534 | 7.27611 | 4106 ft | 250 kts | 86° |
| 2026-04-22 18:55 | 50.80612 | 7.30417 | 4589 ft | 265 kts | 86° |
| 2026-04-22 18:55 | 50.80526 | 7.33311 | 5261 ft | 274 kts | 92° |
| 2026-04-22 18:55 | 50.80326 | 7.36407 | 6048 ft | 279 kts | 94° |
| 2026-04-22 18:55 | 50.80088 | 7.39434 | 6763 ft | 284 kts | 95° |
| 2026-04-22 18:56 | 50.79827 | 7.42522 | 7469 ft | 289 kts | 95° |
| 2026-04-22 18:56 | 50.79548 | 7.45696 | 8176 ft | 294 kts | 96° |
| 2026-04-22 18:56 | 50.79261 | 7.48909 | 8881 ft | 298 kts | 96° |
| 2026-04-22 18:56 | 50.78971 | 7.52146 | 9569 ft | 302 kts | 96° |
| 2026-04-22 18:57 | 50.78673 | 7.55472 | 10239 ft | 306 kts | 97° |
| 2026-04-22 18:57 | 50.78494 | 7.58806 | 10795 ft | 313 kts | 89° |
| 2026-04-22 18:57 | 50.78621 | 7.62316 | 11102 ft | 329 kts | 81° |
| 2026-04-22 18:57 | 50.79001 | 7.65995 | 11404 ft | 345 kts | 79° |
| 2026-04-22 18:58 | 50.79419 | 7.69490 | 11667 ft | 360 kts | 79° |
| 2026-04-22 18:58 | 50.79890 | 7.73473 | 11949 ft | 376 kts | 80° |
| 2026-04-22 18:58 | 50.80362 | 7.77607 | 12220 ft | 391 kts | 80° |
| 2026-04-22 18:58 | 50.80852 | 7.81961 | 12486 ft | 406 kts | 80° |
| 2026-04-22 18:59 | 50.81344 | 7.86381 | 12740 ft | 421 kts | 80° |
| 2026-04-22 18:59 | 50.81859 | 7.91037 | 13135 ft | 431 kts | 80° |
| 2026-04-22 18:59 | 50.82371 | 7.95710 | 13743 ft | 436 kts | 80° |
| 2026-04-22 18:59 | 50.82884 | 8.00418 | 14343 ft | 440 kts | 81° |
| 2026-04-22 19:00 | 50.83053 | 8.05295 | 14877 ft | 446 kts | 96° |
| 2026-04-22 19:00 | 50.82355 | 8.10031 | 15449 ft | 447 kts | 114° |
| 2026-04-22 19:00 | 50.80874 | 8.14346 | 16070 ft | 447 kts | 126° |
| 2026-04-22 19:00 | 50.79133 | 8.18395 | 16744 ft | 449 kts | 128° |
| 2026-04-22 19:01 | 50.77324 | 8.22478 | 17452 ft | 451 kts | 128° |
| 2026-04-22 19:01 | 50.75536 | 8.26570 | 18156 ft | 453 kts | 127° |
| 2026-04-22 19:01 | 50.73785 | 8.30650 | 18852 ft | 454 kts | 127° |
| 2026-04-22 19:01 | 50.72028 | 8.34783 | 19553 ft | 455 kts | 128° |
| 2026-04-22 19:02 | 50.70079 | 8.38668 | 20247 ft | 450 kts | 137° |
| 2026-04-22 19:02 | 50.67784 | 8.41961 | 20889 ft | 444 kts | 148° |
| 2026-04-22 19:02 | 50.65226 | 8.44590 | 21211 ft | 447 kts | 156° |
| 2026-04-22 19:02 | 50.62468 | 8.46921 | 21420 ft | 457 kts | 158° |
| 2026-04-22 19:03 | 50.59586 | 8.49257 | 21625 ft | 469 kts | 158° |
| 2026-04-22 19:03 | 50.56700 | 8.51613 | 21853 ft | 479 kts | 158° |
| 2026-04-22 19:03 | 50.53714 | 8.54097 | 22263 ft | 486 kts | 157° |
| 2026-04-22 19:03 | 50.50897 | 8.57130 | 22724 ft | 501 kts | 141° |
| 2026-04-22 19:04 | 50.48741 | 8.61521 | 23343 ft | 512 kts | 121° |
| 2026-04-22 19:04 | 50.47394 | 8.66373 | 24041 ft | 512 kts | 112° |
| 2026-04-22 19:04 | 50.46259 | 8.71588 | 24620 ft | 513 kts | 110° |
| 2026-04-22 19:04 | 50.45203 | 8.76858 | 25074 ft | 515 kts | 108° |
| 2026-04-22 19:05 | 50.44200 | 8.82278 | 25548 ft | 517 kts | 108° |
| 2026-04-22 19:05 | 50.43217 | 8.87725 | 26044 ft | 518 kts | 107° |
| 2026-04-22 19:05 | 50.42240 | 8.93119 | 26521 ft | 518 kts | 107° |
| 2026-04-22 19:05 | 50.41244 | 8.98561 | 26956 ft | 519 kts | 107° |
| 2026-04-22 19:06 | 50.40238 | 9.04011 | 27358 ft | 521 kts | 107° |
| 2026-04-22 19:06 | 50.39233 | 9.09411 | 27743 ft | 522 kts | 107° |
| 2026-04-22 19:06 | 50.38184 | 9.15026 | 28131 ft | 524 kts | 107° |
| 2026-04-22 19:07 | 50.36122 | 9.25993 | 28900 ft | 525 kts | 107° |
| 2026-04-22 19:07 | 50.35086 | 9.31481 | 29280 ft | 525 kts | 107° |
| 2026-04-22 19:07 | 50.34044 | 9.36988 | 29649 ft | 526 kts | 107° |
| 2026-04-22 19:07 | 50.33013 | 9.42417 | 29998 ft | 526 kts | 107° |
| 2026-04-22 19:08 | 50.31965 | 9.47912 | 30334 ft | 527 kts | 106° |
| 2026-04-22 19:08 | 50.30913 | 9.53421 | 30661 ft | 527 kts | 106° |
| 2026-04-22 19:08 | 50.29856 | 9.58935 | 30988 ft | 528 kts | 106° |
| 2026-04-22 19:08 | 50.28799 | 9.64432 | 31309 ft | 528 kts | 106° |
| 2026-04-22 19:09 | 50.27755 | 9.69863 | 31595 ft | 528 kts | 107° |
| 2026-04-22 19:09 | 50.26733 | 9.75165 | 31860 ft | 528 kts | 107° |
| 2026-04-22 19:09 | 50.26022 | 9.78842 | 32040 ft | 529 kts | 107° |
| 2026-04-22 19:09 | 50.24595 | 9.86200 | 32398 ft | 529 kts | 107° |
| 2026-04-22 19:10 | 50.23530 | 9.91669 | 32668 ft | 527 kts | 107° |
| 2026-04-22 19:10 | 50.22510 | 9.96884 | 34001 ft | 478 kts | 107° |
| 2026-04-22 19:10 | 50.21580 | 10.01639 | 34703 ft | 448 kts | 107° |
| 2026-04-22 19:10 | 50.20679 | 10.06231 | 34998 ft | 446 kts | 107° |
| 2026-04-22 19:11 | 50.19761 | 10.10906 | 35014 ft | 449 kts | 107° |
| 2026-04-22 19:11 | 50.17913 | 10.20259 | 34996 ft | 450 kts | 107° |
| 2026-04-22 19:12 | 50.16063 | 10.29562 | 34986 ft | 450 kts | 107° |
| 2026-04-22 19:12 | 50.14206 | 10.38860 | 34983 ft | 450 kts | 107° |
| 2026-04-22 19:13 | 50.12344 | 10.48148 | 34982 ft | 450 kts | 107° |
| 2026-04-22 19:13 | 50.10473 | 10.57432 | 34982 ft | 450 kts | 107° |
| 2026-04-22 19:14 | 50.08623 | 10.66574 | 34982 ft | 450 kts | 108° |
| 2026-04-22 19:14 | 50.06727 | 10.75922 | 34981 ft | 450 kts | 108° |
| 2026-04-22 19:15 | 50.05148 | 10.83670 | 34981 ft | 450 kts | 108° |
| 2026-04-22 19:15 | 50.02935 | 10.94454 | 34981 ft | 450 kts | 108° |
| 2026-04-22 19:16 | 50.01028 | 11.03704 | 34982 ft | 450 kts | 108° |
| 2026-04-22 19:16 | 49.99110 | 11.12956 | 34982 ft | 450 kts | 108° |
| 2026-04-22 19:17 | 49.97180 | 11.22228 | 34982 ft | 450 kts | 108° |
| 2026-04-22 19:17 | 49.95250 | 11.31453 | 34982 ft | 450 kts | 108° |
| 2026-04-22 19:18 | 49.93305 | 11.40710 | 34982 ft | 450 kts | 108° |
| 2026-04-22 19:18 | 49.91367 | 11.49892 | 34982 ft | 450 kts | 108° |
| 2026-04-22 19:19 | 49.89479 | 11.58783 | 34982 ft | 450 kts | 108° |
| 2026-04-22 19:19 | 49.87506 | 11.67915 | 34982 ft | 450 kts | 109° |
| 2026-04-22 19:20 | 49.85516 | 11.77174 | 34982 ft | 450 kts | 108° |
| 2026-04-22 19:20 | 49.83541 | 11.86356 | 34982 ft | 450 kts | 108° |
| 2026-04-22 19:21 | 49.81569 | 11.95489 | 34982 ft | 450 kts | 108° |
| 2026-04-22 19:21 | 49.79596 | 12.04593 | 34981 ft | 450 kts | 108° |
| 2026-04-22 19:22 | 49.77607 | 12.13730 | 34981 ft | 450 kts | 108° |
| 2026-04-22 19:22 | 49.75610 | 12.22870 | 34981 ft | 450 kts | 108° |
| 2026-04-22 19:23 | 49.73602 | 12.32023 | 34981 ft | 450 kts | 108° |
| 2026-04-22 19:23 | 49.71588 | 12.41147 | 34981 ft | 450 kts | 108° |
| 2026-04-22 19:24 | 49.69788 | 12.50414 | 34982 ft | 450 kts | 103° |
| 2026-04-22 19:24 | 49.68449 | 12.59850 | 34982 ft | 450 kts | 101° |
| 2026-04-22 19:25 | 49.67135 | 12.69147 | 34981 ft | 450 kts | 104° |
| 2026-04-22 19:25 | 49.65253 | 12.78328 | 34981 ft | 450 kts | 111° |
| 2026-04-22 19:26 | 49.62610 | 12.87067 | 34981 ft | 450 kts | 119° |
| 2026-04-22 19:26 | 49.59282 | 12.95182 | 34982 ft | 450 kts | 125° |
| 2026-04-22 19:27 | 49.55686 | 13.03068 | 34982 ft | 450 kts | 125° |
| 2026-04-22 19:27 | 49.52081 | 13.10957 | 34981 ft | 450 kts | 125° |
| 2026-04-22 19:28 | 49.48573 | 13.18627 | 34981 ft | 450 kts | 125° |
| 2026-04-22 19:28 | 49.46395 | 13.23355 | 34856 ft | 456 kts | 122° |
| 2026-04-22 19:28 | 49.44551 | 13.27362 | 35047 ft | 453 kts | 122° |
| 2026-04-22 19:29 | 49.42755 | 13.31289 | 35150 ft | 454 kts | 122° |
| 2026-04-22 19:29 | 49.39069 | 13.39336 | 34561 ft | 467 kts | 122° |
| 2026-04-22 19:29 | 49.37177 | 13.43449 | 33721 ft | 479 kts | 122° |
| 2026-04-22 19:30 | 49.35885 | 13.46262 | 33057 ft | 489 kts | 123° |
| 2026-04-22 19:30 | 49.33229 | 13.52027 | 31969 ft | 515 kts | 124° |
| 2026-04-22 19:30 | 49.31131 | 13.56556 | 31491 ft | 535 kts | 124° |
| 2026-04-22 19:30 | 49.28933 | 13.61280 | 31283 ft | 543 kts | 125° |
| 2026-04-22 19:31 | 49.26738 | 13.65986 | 31275 ft | 543 kts | 126° |
| 2026-04-22 19:31 | 49.22355 | 13.75389 | 31274 ft | 543 kts | 126° |
| 2026-04-22 19:32 | 49.17992 | 13.84716 | 31274 ft | 543 kts | 126° |
| 2026-04-22 19:32 | 49.13582 | 13.94104 | 31274 ft | 543 kts | 126° |
| 2026-04-22 19:33 | 49.09197 | 14.03402 | 30949 ft | 541 kts | 126° |
| 2026-04-22 19:33 | 49.06972 | 14.08107 | 30084 ft | 545 kts | 126° |
| 2026-04-22 19:33 | 49.04770 | 14.12759 | 29463 ft | 539 kts | 125° |
| 2026-04-22 19:33 | 49.02597 | 14.17341 | 28854 ft | 530 kts | 125° |
| 2026-04-22 19:34 | 49.00474 | 14.21807 | 28267 ft | 522 kts | 125° |
| 2026-04-22 19:34 | 48.98346 | 14.26273 | 27681 ft | 513 kts | 125° |
| 2026-04-22 19:34 | 48.97517 | 14.28010 | 27453 ft | 510 kts | 124° |
| 2026-04-22 19:34 | 48.95557 | 14.32119 | 26917 ft | 502 kts | 124° |
| 2026-04-22 19:35 | 48.93391 | 14.36592 | 26329 ft | 494 kts | 126° |
| 2026-04-22 19:35 | 48.91387 | 14.40592 | 25801 ft | 487 kts | 127° |
| 2026-04-22 19:35 | 48.89609 | 14.44095 | 25338 ft | 480 kts | 127° |
| 2026-04-22 19:35 | 48.87481 | 14.48250 | 24726 ft | 471 kts | 127° |
| 2026-04-22 19:36 | 48.85498 | 14.52124 | 24079 ft | 462 kts | 127° |
| 2026-04-22 19:36 | 48.83551 | 14.55941 | 23499 ft | 452 kts | 127° |
| 2026-04-22 19:36 | 48.81645 | 14.59686 | 22870 ft | 444 kts | 127° |
| 2026-04-22 19:36 | 48.79777 | 14.63362 | 22189 ft | 438 kts | 127° |
| 2026-04-22 19:37 | 48.77957 | 14.66947 | 21508 ft | 432 kts | 128° |
| 2026-04-22 19:37 | 48.76145 | 14.70522 | 20821 ft | 426 kts | 128° |
| 2026-04-22 19:37 | 48.74352 | 14.74047 | 20142 ft | 420 kts | 129° |
| 2026-04-22 19:37 | 48.72567 | 14.77546 | 19516 ft | 418 kts | 129° |
| 2026-04-22 19:38 | 48.70817 | 14.80965 | 19150 ft | 413 kts | 129° |
| 2026-04-22 19:38 | 48.69064 | 14.84384 | 18807 ft | 408 kts | 129° |
| 2026-04-22 19:38 | 48.67346 | 14.87730 | 18432 ft | 404 kts | 129° |
| 2026-04-22 19:38 | 48.65605 | 14.91117 | 18030 ft | 401 kts | 129° |
| 2026-04-22 19:39 | 48.63912 | 14.94405 | 17649 ft | 397 kts | 129° |
| 2026-04-22 19:39 | 48.62225 | 14.97680 | 17320 ft | 392 kts | 129° |
| 2026-04-22 19:39 | 48.60566 | 15.00896 | 17264 ft | 391 kts | 129° |
| 2026-04-22 19:39 | 48.59481 | 15.03134 | 17248 ft | 392 kts | 122° |
| 2026-04-22 19:40 | 48.58084 | 15.08157 | 17262 ft | 390 kts | 104° |
| 2026-04-22 19:40 | 48.57415 | 15.12034 | 17253 ft | 378 kts | 102° |
| 2026-04-22 19:40 | 48.56811 | 15.15819 | 17249 ft | 363 kts | 102° |
| 2026-04-22 19:40 | 48.56223 | 15.19459 | 17246 ft | 350 kts | 102° |
| 2026-04-22 19:41 | 48.55631 | 15.23023 | 17245 ft | 350 kts | 102° |
| 2026-04-22 19:41 | 48.55029 | 15.26578 | 17239 ft | 351 kts | 103° |
| 2026-04-22 19:41 | 48.54416 | 15.30137 | 17232 ft | 350 kts | 103° |
| 2026-04-22 19:41 | 48.53800 | 15.33683 | 17225 ft | 350 kts | 103° |
| 2026-04-22 19:42 | 48.53179 | 15.37246 | 17218 ft | 350 kts | 103° |
| 2026-04-22 19:42 | 48.52564 | 15.40767 | 17211 ft | 350 kts | 103° |
| 2026-04-22 19:42 | 48.52027 | 15.44375 | 17207 ft | 349 kts | 97° |
| 2026-04-22 19:42 | 48.51736 | 15.47980 | 17206 ft | 348 kts | 92° |
| 2026-04-22 19:43 | 48.51358 | 15.55270 | 17198 ft | 346 kts | 91° |
| 2026-04-22 19:43 | 48.51171 | 15.58859 | 16996 ft | 341 kts | 91° |
| 2026-04-22 19:43 | 48.50976 | 15.62420 | 16729 ft | 336 kts | 92° |
| 2026-04-22 19:44 | 48.50779 | 15.65903 | 16462 ft | 332 kts | 93° |
| 2026-04-22 19:44 | 48.50581 | 15.69368 | 16193 ft | 327 kts | 93° |
| 2026-04-22 19:44 | 48.50382 | 15.72785 | 15931 ft | 322 kts | 93° |
| 2026-04-22 19:44 | 48.50188 | 15.76096 | 15676 ft | 317 kts | 93° |
| 2026-04-22 19:45 | 48.49995 | 15.79373 | 15339 ft | 310 kts | 93° |
| 2026-04-22 19:45 | 48.49806 | 15.82572 | 15009 ft | 303 kts | 94° |
| 2026-04-22 19:45 | 48.49618 | 15.85728 | 14677 ft | 297 kts | 94° |
| 2026-04-22 19:45 | 48.49435 | 15.88795 | 14324 ft | 290 kts | 94° |
| 2026-04-22 19:46 | 48.49257 | 15.91781 | 13927 ft | 285 kts | 94° |
| 2026-04-22 19:46 | 48.49080 | 15.94734 | 13496 ft | 282 kts | 94° |
| 2026-04-22 19:46 | 48.48904 | 15.97647 | 13070 ft | 279 kts | 94° |
| 2026-04-22 19:46 | 48.48730 | 16.00513 | 12649 ft | 275 kts | 94° |
| 2026-04-22 19:47 | 48.48556 | 16.03358 | 12229 ft | 272 kts | 94° |
| 2026-04-22 19:47 | 48.48383 | 16.06168 | 11810 ft | 269 kts | 95° |
| 2026-04-22 19:47 | 48.48139 | 16.08963 | 11452 ft | 269 kts | 104° |
| 2026-04-22 19:47 | 48.47450 | 16.11556 | 11172 ft | 266 kts | 121° |
| 2026-04-22 19:48 | 48.46456 | 16.13868 | 10895 ft | 264 kts | 125° |
| 2026-04-22 19:48 | 48.45406 | 16.16113 | 10597 ft | 263 kts | 126° |
| 2026-04-22 19:48 | 48.44357 | 16.18341 | 10305 ft | 262 kts | 126° |
| 2026-04-22 19:48 | 48.43304 | 16.20600 | 10012 ft | 261 kts | 125° |
| 2026-04-22 19:49 | 48.42271 | 16.22833 | 9723 ft | 260 kts | 125° |
| 2026-04-22 19:49 | 48.41245 | 16.25064 | 9436 ft | 259 kts | 125° |
| 2026-04-22 19:49 | 48.40231 | 16.27277 | 9151 ft | 258 kts | 124° |
| 2026-04-22 19:49 | 48.39205 | 16.29513 | 8863 ft | 257 kts | 124° |
| 2026-04-22 19:50 | 48.38198 | 16.31711 | 8580 ft | 256 kts | 124° |
| 2026-04-22 19:50 | 48.37193 | 16.33902 | 8299 ft | 255 kts | 124° |
| 2026-04-22 19:50 | 48.36193 | 16.36082 | 8018 ft | 254 kts | 124° |
| 2026-04-22 19:50 | 48.35191 | 16.38265 | 7738 ft | 253 kts | 124° |
| 2026-04-22 19:51 | 48.34198 | 16.40426 | 7460 ft | 252 kts | 124° |
| 2026-04-22 19:51 | 48.33194 | 16.42571 | 7225 ft | 249 kts | 127° |
| 2026-04-22 19:51 | 48.32136 | 16.44643 | 7107 ft | 251 kts | 128° |
| 2026-04-22 19:51 | 48.31052 | 16.46713 | 6981 ft | 250 kts | 128° |
| 2026-04-22 19:52 | 48.29981 | 16.48759 | 6857 ft | 250 kts | 128° |
| 2026-04-22 19:52 | 48.28903 | 16.50828 | 6731 ft | 249 kts | 128° |
| 2026-04-22 19:52 | 48.27851 | 16.52855 | 6608 ft | 249 kts | 128° |
| 2026-04-22 19:52 | 48.26782 | 16.54920 | 6482 ft | 248 kts | 127° |
| 2026-04-22 19:53 | 48.25720 | 16.56974 | 6357 ft | 248 kts | 127° |
| 2026-04-22 19:53 | 48.24670 | 16.59003 | 6233 ft | 247 kts | 127° |
| 2026-04-22 19:53 | 48.23616 | 16.61041 | 6105 ft | 246 kts | 127° |
| 2026-04-22 19:53 | 48.22561 | 16.63077 | 5889 ft | 246 kts | 127° |
| 2026-04-22 19:54 | 48.21513 | 16.65100 | 5664 ft | 245 kts | 128° |
| 2026-04-22 19:54 | 48.20496 | 16.67071 | 5444 ft | 244 kts | 128° |
| 2026-04-22 19:54 | 48.19463 | 16.69076 | 5220 ft | 244 kts | 128° |
| 2026-04-22 19:54 | 48.18415 | 16.71102 | 4993 ft | 243 kts | 128° |
| 2026-04-22 19:55 | 48.17359 | 16.73026 | 4763 ft | 242 kts | 139° |
| 2026-04-22 19:55 | 48.15979 | 16.74473 | 4541 ft | 241 kts | 152° |
| 2026-04-22 19:55 | 48.14501 | 16.75655 | 4202 ft | 244 kts | 154° |
| 2026-04-22 19:55 | 48.12989 | 16.76794 | 3857 ft | 246 kts | 154° |
| 2026-04-22 19:56 | 48.11460 | 16.77931 | 3504 ft | 244 kts | 155° |
| 2026-04-22 19:56 | 48.09942 | 16.79051 | 3150 ft | 240 kts | 155° |
| 2026-04-22 19:56 | 48.08426 | 16.79824 | 2979 ft | 222 kts | 179° |
| 2026-04-22 19:56 | 48.07018 | 16.79512 | 3006 ft | 194 kts | 200° |
| 2026-04-22 19:57 | 48.05788 | 16.78823 | 2984 ft | 187 kts | 211° |
| 2026-04-22 19:57 | 48.04917 | 16.77470 | 2969 ft | 181 kts | 251° |
| 2026-04-22 19:57 | 48.04872 | 16.75644 | 2984 ft | 176 kts | 289° |
| 2026-04-22 19:57 | 48.05402 | 16.73998 | 2952 ft | 176 kts | 302° |
| 2026-04-22 19:58 | 48.06030 | 16.72430 | 2762 ft | 176 kts | 301° |
| 2026-04-22 19:58 | 48.06601 | 16.70863 | 2521 ft | 170 kts | 298° |
| 2026-04-22 19:58 | 48.07117 | 16.69308 | 2286 ft | 162 kts | 297° |
| 2026-04-22 19:58 | 48.07594 | 16.67822 | 2062 ft | 154 kts | 297° |
| 2026-04-22 19:59 | 48.08052 | 16.66395 | 1859 ft | 149 kts | 297° |
| 2026-04-22 20:00 | 48.10643 | 16.58369 | 742 ft | 141 kts | 298° |
| 2026-04-22 20:00 | 48.11073 | 16.57057 | 608 ft | 137 kts | 298° |
| 2026-04-22 20:01 | 48.11434 | 16.55948 | 585 ft | 96 kts | 295° |
| 2026-04-22 20:01 | 48.11651 | 16.55272 | 583 ft | 48 kts | 297° |
| 2026-04-22 20:01 | 48.11760 | 16.54943 | 583 ft | 32 kts | 297° |
| 2026-04-22 20:01 | 48.11874 | 16.54691 | 579 ft | 26 kts | 320° |
| 2026-04-22 20:02 | 48.11982 | 16.54574 | 577 ft | 12 kts | 327° |
| 2026-04-22 20:02 | 48.12057 | 16.54553 | 575 ft | 11 kts | 18° |
| 2026-04-22 20:02 | 48.12065 | 16.54641 | 576 ft | 9 kts | 111° |
| 2026-04-22 20:02 | 48.12036 | 16.54734 | 578 ft | 9 kts | 115° |
| 2026-04-22 20:03 | 48.12007 | 16.54827 | 579 ft | 9 kts | 118° |
| 2026-04-22 20:03 | 48.11973 | 16.54925 | 580 ft | 11 kts | 116° |
| 2026-04-22 20:03 | 48.11938 | 16.55038 | 581 ft | 12 kts | 116° |
| 2026-04-22 20:03 | 48.11897 | 16.55158 | 583 ft | 12 kts | 117° |
| 2026-04-22 20:04 | 48.11854 | 16.55287 | 583 ft | 14 kts | 116° |
| 2026-04-22 20:04 | 48.11807 | 16.55434 | 582 ft | 16 kts | 115° |
| 2026-04-22 20:04 | 48.11756 | 16.55594 | 583 ft | 17 kts | 117° |
| 2026-04-22 20:04 | 48.11718 | 16.55724 | 583 ft | 10 kts | 95° |
| 2026-04-22 20:05 | 48.11762 | 16.55801 | 583 ft | 9 kts | 352° |
| 2026-04-22 20:05 | 48.11807 | 16.55722 | 583 ft | 11 kts | 297° |
| 2026-04-22 20:05 | 48.11838 | 16.55666 | 583 ft | 5 kts | 355° |
| 2026-04-22 20:05 | 48.11883 | 16.55689 | 583 ft | 6 kts | 26° |
| 2026-04-22 20:06 | 48.11898 | 16.55700 | 583 ft | 0 kts | 26° |